sensor_id;sensor_type;location;lat;lon;timestamp;P1;durP1;ratioP1;P2;durP2;ratioP2
46288;SDS011;63105;46.158;14.604;2023-02-12T00:02:05;63.05;;;34.83;;
46288;SDS011;63105;46.158;14.604;2023-02-12T00:04:30;69.25;;;38.92;;
46288;SDS011;63105;46.158;14.604;2023-02-12T00:06:56;62.97;;;34.85;;
46288;SDS011;63105;46.158;14.604;2023-02-12T00:09:21;59.53;;;35.50;;
46288;SDS011;63105;46.158;14.604;2023-02-12T00:11:46;59.72;;;34.67;;
46288;SDS011;63105;46.158;14.604;2023-02-12T00:14:11;62.30;;;34.78;;
46288;SDS011;63105;46.158;14.604;2023-02-12T00:16:37;63.50;;;36.22;;
46288;SDS011;63105;46.158;14.604;2023-02-12T00:19:02;66.80;;;36.17;;
46288;SDS011;63105;46.158;14.604;2023-02-12T00:21:27;63.05;;;35.50;;
46288;SDS011;63105;46.158;14.604;2023-02-12T00:23:52;61.75;;;34.17;;
46288;SDS011;63105;46.158;14.604;2023-02-12T00:26:19;64.65;;;35.67;;
46288;SDS011;63105;46.158;14.604;2023-02-12T00:28:44;62.42;;;34.83;;
46288;SDS011;63105;46.158;14.604;2023-02-12T00:31:14;59.35;;;34.35;;
46288;SDS011;63105;46.158;14.604;2023-02-12T00:33:39;59.28;;;34.72;;
46288;SDS011;63105;46.158;14.604;2023-02-12T00:36:05;60.58;;;33.60;;
46288;SDS011;63105;46.158;14.604;2023-02-12T00:38:31;53.08;;;32.58;;
46288;SDS011;63105;46.158;14.604;2023-02-12T00:40:56;60.95;;;32.33;;
46288;SDS011;63105;46.158;14.604;2023-02-12T00:43:21;55.10;;;32.30;;
46288;SDS011;63105;46.158;14.604;2023-02-12T00:45:47;55.08;;;32.15;;
46288;SDS011;63105;46.158;14.604;2023-02-12T00:48:12;52.55;;;30.77;;
46288;SDS011;63105;46.158;14.604;2023-02-12T00:50:38;55.88;;;32.25;;
46288;SDS011;63105;46.158;14.604;2023-02-12T00:53:05;51.53;;;30.17;;
46288;SDS011;63105;46.158;14.604;2023-02-12T00:55:30;53.22;;;30.92;;
46288;SDS011;63105;46.158;14.604;2023-02-12T00:57:57;47.35;;;28.52;;
46288;SDS011;63105;46.158;14.604;2023-02-12T01:00:22;51.63;;;27.50;;
46288;SDS011;63105;46.158;14.604;2023-02-12T01:02:47;47.60;;;28.85;;
46288;SDS011;63105;46.158;14.604;2023-02-12T01:05:12;45.95;;;28.00;;
46288;SDS011;63105;46.158;14.604;2023-02-12T01:07:38;48.90;;;27.73;;
46288;SDS011;63105;46.158;14.604;2023-02-12T01:10:05;48.15;;;27.65;;
46288;SDS011;63105;46.158;14.604;2023-02-12T01:12:30;47.25;;;27.83;;
46288;SDS011;63105;46.158;14.604;2023-02-12T01:14:56;48.72;;;29.10;;
46288;SDS011;63105;46.158;14.604;2023-02-12T01:17:21;51.33;;;28.83;;
46288;SDS011;63105;46.158;14.604;2023-02-12T01:19:46;50.05;;;28.83;;
46288;SDS011;63105;46.158;14.604;2023-02-12T01:22:11;47.92;;;28.58;;
46288;SDS011;63105;46.158;14.604;2023-02-12T01:24:36;45.05;;;27.77;;
46288;SDS011;63105;46.158;14.604;2023-02-12T01:27:02;47.05;;;26.42;;
46288;SDS011;63105;46.158;14.604;2023-02-12T01:29:27;47.53;;;28.70;;
46288;SDS011;63105;46.158;14.604;2023-02-12T01:31:52;48.65;;;28.42;;
46288;SDS011;63105;46.158;14.604;2023-02-12T01:34:17;45.50;;;26.17;;
46288;SDS011;63105;46.158;14.604;2023-02-12T01:36:43;43.92;;;26.20;;
46288;SDS011;63105;46.158;14.604;2023-02-12T01:39:09;47.35;;;26.52;;
46288;SDS011;63105;46.158;14.604;2023-02-12T01:41:35;43.25;;;25.75;;
46288;SDS011;63105;46.158;14.604;2023-02-12T01:44:04;58.90;;;33.13;;
46288;SDS011;63105;46.158;14.604;2023-02-12T01:46:29;49.28;;;27.35;;
46288;SDS011;63105;46.158;14.604;2023-02-12T01:48:55;45.22;;;26.85;;
46288;SDS011;63105;46.158;14.604;2023-02-12T01:51:20;44.55;;;26.63;;
46288;SDS011;63105;46.158;14.604;2023-02-12T01:53:48;47.08;;;26.88;;
46288;SDS011;63105;46.158;14.604;2023-02-12T01:56:14;44.78;;;26.00;;
46288;SDS011;63105;46.158;14.604;2023-02-12T01:58:40;49.03;;;27.38;;
46288;SDS011;63105;46.158;14.604;2023-02-12T02:01:07;44.97;;;25.85;;
46288;SDS011;63105;46.158;14.604;2023-02-12T02:03:33;45.47;;;26.55;;
46288;SDS011;63105;46.158;14.604;2023-02-12T02:06:05;43.08;;;25.73;;
46288;SDS011;63105;46.158;14.604;2023-02-12T02:08:32;43.30;;;25.60;;
46288;SDS011;63105;46.158;14.604;2023-02-12T02:10:58;43.90;;;24.55;;
46288;SDS011;63105;46.158;14.604;2023-02-12T02:13:24;53.97;;;30.38;;
46288;SDS011;63105;46.158;14.604;2023-02-12T02:16:13;42.55;;;23.58;;
46288;SDS011;63105;46.158;14.604;2023-02-12T02:18:50;45.47;;;25.98;;
46288;SDS011;63105;46.158;14.604;2023-02-12T02:26:43;41.90;;;25.23;;
46288;SDS011;63105;46.158;14.604;2023-02-12T02:34:54;42.50;;;24.88;;
46288;SDS011;63105;46.158;14.604;2023-02-12T02:37:30;39.00;;;23.48;;
46288;SDS011;63105;46.158;14.604;2023-02-12T02:39:58;39.92;;;22.85;;
46288;SDS011;63105;46.158;14.604;2023-02-12T02:42:26;38.90;;;23.42;;
46288;SDS011;63105;46.158;14.604;2023-02-12T02:44:53;37.70;;;22.17;;
46288;SDS011;63105;46.158;14.604;2023-02-12T02:47:29;39.70;;;22.20;;
46288;SDS011;63105;46.158;14.604;2023-02-12T02:49:58;37.53;;;21.52;;
46288;SDS011;63105;46.158;14.604;2023-02-12T02:52:36;38.88;;;21.65;;
46288;SDS011;63105;46.158;14.604;2023-02-12T02:55:07;36.95;;;21.83;;
46288;SDS011;63105;46.158;14.604;2023-02-12T02:57:38;39.17;;;21.02;;
46288;SDS011;63105;46.158;14.604;2023-02-12T03:00:06;36.28;;;21.58;;
46288;SDS011;63105;46.158;14.604;2023-02-12T03:02:36;35.85;;;21.38;;
46288;SDS011;63105;46.158;14.604;2023-02-12T03:05:03;36.67;;;21.40;;
46288;SDS011;63105;46.158;14.604;2023-02-12T03:07:32;34.05;;;21.10;;
46288;SDS011;63105;46.158;14.604;2023-02-12T03:10:03;36.75;;;21.20;;
46288;SDS011;63105;46.158;14.604;2023-02-12T03:12:35;37.00;;;21.85;;
46288;SDS011;63105;46.158;14.604;2023-02-12T03:15:08;36.75;;;20.58;;
46288;SDS011;63105;46.158;14.604;2023-02-12T03:17:39;34.17;;;20.83;;
46288;SDS011;63105;46.158;14.604;2023-02-12T03:20:07;34.72;;;20.25;;
46288;SDS011;63105;46.158;14.604;2023-02-12T03:22:35;33.17;;;20.05;;
46288;SDS011;63105;46.158;14.604;2023-02-12T03:25:03;34.63;;;21.65;;
46288;SDS011;63105;46.158;14.604;2023-02-12T03:27:35;38.30;;;22.42;;
46288;SDS011;63105;46.158;14.604;2023-02-12T03:30:02;37.85;;;21.85;;
46288;SDS011;63105;46.158;14.604;2023-02-12T03:35:15;36.00;;;21.55;;
46288;SDS011;63105;46.158;14.604;2023-02-12T03:40:39;38.70;;;22.15;;
46288;SDS011;63105;46.158;14.604;2023-02-12T03:43:08;41.03;;;23.98;;
46288;SDS011;63105;46.158;14.604;2023-02-12T03:45:49;44.13;;;26.55;;
46288;SDS011;63105;46.158;14.604;2023-02-12T03:51:02;37.88;;;23.05;;
46288;SDS011;63105;46.158;14.604;2023-02-12T03:53:28;50.10;;;29.13;;
46288;SDS011;63105;46.158;14.604;2023-02-12T03:55:56;38.63;;;23.23;;
46288;SDS011;63105;46.158;14.604;2023-02-12T03:58:24;43.05;;;23.45;;
46288;SDS011;63105;46.158;14.604;2023-02-12T04:00:50;38.03;;;22.75;;
46288;SDS011;63105;46.158;14.604;2023-02-12T04:03:16;37.65;;;22.55;;
46288;SDS011;63105;46.158;14.604;2023-02-12T04:05:41;42.80;;;25.65;;
46288;SDS011;63105;46.158;14.604;2023-02-12T04:08:07;41.72;;;23.92;;
46288;SDS011;63105;46.158;14.604;2023-02-12T04:18:20;40.05;;;22.73;;
46288;SDS011;63105;46.158;14.604;2023-02-12T04:20:52;52.90;;;32.58;;
46288;SDS011;63105;46.158;14.604;2023-02-12T04:25:52;45.22;;;26.48;;
46288;SDS011;63105;46.158;14.604;2023-02-12T04:31:07;65.43;;;37.65;;
46288;SDS011;63105;46.158;14.604;2023-02-12T04:33:41;51.60;;;28.70;;
46288;SDS011;63105;46.158;14.604;2023-02-12T04:36:11;52.17;;;29.63;;
46288;SDS011;63105;46.158;14.604;2023-02-12T04:38:39;67.78;;;39.15;;
46288;SDS011;63105;46.158;14.604;2023-02-12T04:41:07;48.72;;;29.42;;
46288;SDS011;63105;46.158;14.604;2023-02-12T04:43:34;52.78;;;30.00;;
46288;SDS011;63105;46.158;14.604;2023-02-12T04:46:00;64.80;;;37.15;;
46288;SDS011;63105;46.158;14.604;2023-02-12T04:48:25;53.53;;;31.10;;
46288;SDS011;63105;46.158;14.604;2023-02-12T04:50:50;53.33;;;28.50;;
46288;SDS011;63105;46.158;14.604;2023-02-12T04:53:15;48.35;;;29.05;;
46288;SDS011;63105;46.158;14.604;2023-02-12T04:55:41;47.20;;;28.13;;
46288;SDS011;63105;46.158;14.604;2023-02-12T04:58:06;48.67;;;28.45;;
46288;SDS011;63105;46.158;14.604;2023-02-12T05:00:31;51.10;;;29.70;;
46288;SDS011;63105;46.158;14.604;2023-02-12T05:02:57;48.88;;;28.83;;
46288;SDS011;63105;46.158;14.604;2023-02-12T05:05:22;49.42;;;28.98;;
46288;SDS011;63105;46.158;14.604;2023-02-12T05:07:48;48.50;;;28.17;;
46288;SDS011;63105;46.158;14.604;2023-02-12T05:10:13;65.10;;;36.65;;
46288;SDS011;63105;46.158;14.604;2023-02-12T05:12:38;51.08;;;29.02;;
46288;SDS011;63105;46.158;14.604;2023-02-12T05:15:03;54.38;;;31.55;;
46288;SDS011;63105;46.158;14.604;2023-02-12T05:17:29;50.33;;;28.55;;
46288;SDS011;63105;46.158;14.604;2023-02-12T05:19:54;49.50;;;29.42;;
46288;SDS011;63105;46.158;14.604;2023-02-12T05:22:19;48.65;;;28.88;;
46288;SDS011;63105;46.158;14.604;2023-02-12T05:24:44;46.58;;;28.48;;
46288;SDS011;63105;46.158;14.604;2023-02-12T05:27:10;48.35;;;28.73;;
46288;SDS011;63105;46.158;14.604;2023-02-12T05:29:35;45.25;;;27.83;;
46288;SDS011;63105;46.158;14.604;2023-02-12T05:32:01;46.67;;;27.65;;
46288;SDS011;63105;46.158;14.604;2023-02-12T05:34:26;46.60;;;28.92;;
46288;SDS011;63105;46.158;14.604;2023-02-12T05:36:51;49.50;;;28.13;;
46288;SDS011;63105;46.158;14.604;2023-02-12T05:39:16;45.55;;;27.08;;
46288;SDS011;63105;46.158;14.604;2023-02-12T05:41:42;44.88;;;26.35;;
46288;SDS011;63105;46.158;14.604;2023-02-12T05:44:07;40.83;;;25.58;;
46288;SDS011;63105;46.158;14.604;2023-02-12T05:46:32;42.75;;;25.10;;
46288;SDS011;63105;46.158;14.604;2023-02-12T05:48:58;40.90;;;24.50;;
46288;SDS011;63105;46.158;14.604;2023-02-12T05:51:24;42.97;;;25.45;;
46288;SDS011;63105;46.158;14.604;2023-02-12T05:53:50;40.85;;;25.90;;
46288;SDS011;63105;46.158;14.604;2023-02-12T05:56:17;46.38;;;28.42;;
46288;SDS011;63105;46.158;14.604;2023-02-12T05:58:44;42.30;;;26.63;;
46288;SDS011;63105;46.158;14.604;2023-02-12T06:01:14;42.03;;;25.65;;
46288;SDS011;63105;46.158;14.604;2023-02-12T06:03:39;58.28;;;35.53;;
46288;SDS011;63105;46.158;14.604;2023-02-12T06:06:05;42.05;;;25.33;;
46288;SDS011;63105;46.158;14.604;2023-02-12T06:08:31;43.40;;;26.48;;
46288;SDS011;63105;46.158;14.604;2023-02-12T06:11:00;53.40;;;32.05;;
46288;SDS011;63105;46.158;14.604;2023-02-12T06:13:26;46.90;;;29.17;;
46288;SDS011;63105;46.158;14.604;2023-02-12T06:15:51;46.22;;;27.27;;
46288;SDS011;63105;46.158;14.604;2023-02-12T06:18:17;41.90;;;25.58;;
46288;SDS011;63105;46.158;14.604;2023-02-12T06:20:42;41.75;;;26.33;;
46288;SDS011;63105;46.158;14.604;2023-02-12T06:23:07;39.40;;;23.40;;
46288;SDS011;63105;46.158;14.604;2023-02-12T06:25:32;41.67;;;24.35;;
46288;SDS011;63105;46.158;14.604;2023-02-12T06:27:57;40.35;;;24.63;;
46288;SDS011;63105;46.158;14.604;2023-02-12T06:30:23;38.72;;;23.42;;
46288;SDS011;63105;46.158;14.604;2023-02-12T06:32:48;39.33;;;24.13;;
46288;SDS011;63105;46.158;14.604;2023-02-12T06:35:14;37.20;;;24.17;;
46288;SDS011;63105;46.158;14.604;2023-02-12T06:37:39;40.13;;;24.75;;
46288;SDS011;63105;46.158;14.604;2023-02-12T06:40:04;40.28;;;24.95;;
46288;SDS011;63105;46.158;14.604;2023-02-12T06:42:30;39.25;;;24.50;;
46288;SDS011;63105;46.158;14.604;2023-02-12T06:44:55;39.78;;;25.38;;
46288;SDS011;63105;46.158;14.604;2023-02-12T06:47:20;44.17;;;25.92;;
46288;SDS011;63105;46.158;14.604;2023-02-12T06:49:45;41.13;;;25.90;;
46288;SDS011;63105;46.158;14.604;2023-02-12T06:52:11;42.28;;;26.02;;
46288;SDS011;63105;46.158;14.604;2023-02-12T06:54:37;44.08;;;26.92;;
46288;SDS011;63105;46.158;14.604;2023-02-12T06:57:02;43.78;;;26.42;;
46288;SDS011;63105;46.158;14.604;2023-02-12T06:59:28;43.90;;;27.52;;
46288;SDS011;63105;46.158;14.604;2023-02-12T07:01:53;38.30;;;25.58;;
46288;SDS011;63105;46.158;14.604;2023-02-12T07:04:18;41.20;;;27.45;;
46288;SDS011;63105;46.158;14.604;2023-02-12T07:06:44;41.30;;;25.73;;
46288;SDS011;63105;46.158;14.604;2023-02-12T07:09:09;39.65;;;25.77;;
46288;SDS011;63105;46.158;14.604;2023-02-12T07:11:34;42.38;;;26.88;;
46288;SDS011;63105;46.158;14.604;2023-02-12T07:14:00;46.67;;;29.48;;
46288;SDS011;63105;46.158;14.604;2023-02-12T07:16:25;44.58;;;27.77;;
46288;SDS011;63105;46.158;14.604;2023-02-12T07:18:50;51.33;;;30.33;;
46288;SDS011;63105;46.158;14.604;2023-02-12T07:21:16;59.75;;;36.25;;
46288;SDS011;63105;46.158;14.604;2023-02-12T07:23:44;64.03;;;37.38;;
46288;SDS011;63105;46.158;14.604;2023-02-12T07:26:11;47.05;;;29.92;;
46288;SDS011;63105;46.158;14.604;2023-02-12T07:28:36;50.25;;;30.38;;
46288;SDS011;63105;46.158;14.604;2023-02-12T07:31:08;46.03;;;27.55;;
46288;SDS011;63105;46.158;14.604;2023-02-12T07:33:34;52.28;;;32.28;;
46288;SDS011;63105;46.158;14.604;2023-02-12T07:36:00;47.65;;;28.67;;
46288;SDS011;63105;46.158;14.604;2023-02-12T07:38:25;46.15;;;28.92;;
46288;SDS011;63105;46.158;14.604;2023-02-12T07:40:50;48.47;;;29.65;;
46288;SDS011;63105;46.158;14.604;2023-02-12T07:43:15;75.07;;;46.38;;
46288;SDS011;63105;46.158;14.604;2023-02-12T07:45:41;62.60;;;41.95;;
46288;SDS011;63105;46.158;14.604;2023-02-12T07:48:06;57.13;;;35.33;;
46288;SDS011;63105;46.158;14.604;2023-02-12T07:50:31;53.92;;;34.15;;
46288;SDS011;63105;46.158;14.604;2023-02-12T07:52:56;52.95;;;31.73;;
46288;SDS011;63105;46.158;14.604;2023-02-12T07:55:21;71.22;;;47.03;;
46288;SDS011;63105;46.158;14.604;2023-02-12T07:57:47;65.25;;;40.40;;
46288;SDS011;63105;46.158;14.604;2023-02-12T08:00:12;66.20;;;40.30;;
46288;SDS011;63105;46.158;14.604;2023-02-12T08:02:38;58.67;;;36.55;;
46288;SDS011;63105;46.158;14.604;2023-02-12T08:05:03;51.28;;;32.28;;
46288;SDS011;63105;46.158;14.604;2023-02-12T08:07:28;64.57;;;38.95;;
46288;SDS011;63105;46.158;14.604;2023-02-12T08:09:53;53.33;;;34.45;;
46288;SDS011;63105;46.158;14.604;2023-02-12T08:12:19;51.00;;;31.50;;
46288;SDS011;63105;46.158;14.604;2023-02-12T08:14:44;54.00;;;35.05;;
46288;SDS011;63105;46.158;14.604;2023-02-12T08:17:10;70.53;;;43.42;;
46288;SDS011;63105;46.158;14.604;2023-02-12T08:19:35;52.33;;;33.60;;
46288;SDS011;63105;46.158;14.604;2023-02-12T08:22:00;51.70;;;32.25;;
46288;SDS011;63105;46.158;14.604;2023-02-12T08:24:30;44.72;;;28.33;;
46288;SDS011;63105;46.158;14.604;2023-02-12T08:26:56;57.30;;;32.95;;
46288;SDS011;63105;46.158;14.604;2023-02-12T08:29:22;45.55;;;28.33;;
46288;SDS011;63105;46.158;14.604;2023-02-12T08:31:48;42.90;;;27.00;;
46288;SDS011;63105;46.158;14.604;2023-02-12T08:34:21;43.03;;;28.27;;
46288;SDS011;63105;46.158;14.604;2023-02-12T08:36:47;42.75;;;27.10;;
46288;SDS011;63105;46.158;14.604;2023-02-12T08:39:13;47.70;;;27.70;;
46288;SDS011;63105;46.158;14.604;2023-02-12T08:41:38;53.00;;;34.00;;
46288;SDS011;63105;46.158;14.604;2023-02-12T08:44:06;48.08;;;28.77;;
46288;SDS011;63105;46.158;14.604;2023-02-12T08:46:32;47.33;;;27.08;;
46288;SDS011;63105;46.158;14.604;2023-02-12T08:48:59;41.00;;;26.02;;
46288;SDS011;63105;46.158;14.604;2023-02-12T08:51:29;39.30;;;25.85;;
46288;SDS011;63105;46.158;14.604;2023-02-12T08:53:56;42.97;;;26.30;;
46288;SDS011;63105;46.158;14.604;2023-02-12T08:56:22;41.42;;;26.23;;
46288;SDS011;63105;46.158;14.604;2023-02-12T08:58:48;39.28;;;25.90;;
46288;SDS011;63105;46.158;14.604;2023-02-12T09:01:15;41.13;;;25.13;;
46288;SDS011;63105;46.158;14.604;2023-02-12T09:03:40;41.38;;;26.85;;
46288;SDS011;63105;46.158;14.604;2023-02-12T09:06:05;46.03;;;30.55;;
46288;SDS011;63105;46.158;14.604;2023-02-12T09:08:31;38.63;;;24.33;;
46288;SDS011;63105;46.158;14.604;2023-02-12T09:10:56;49.33;;;29.92;;
46288;SDS011;63105;46.158;14.604;2023-02-12T09:13:21;36.63;;;24.70;;
46288;SDS011;63105;46.158;14.604;2023-02-12T09:15:47;42.80;;;27.73;;
46288;SDS011;63105;46.158;14.604;2023-02-12T09:18:13;41.58;;;29.50;;
46288;SDS011;63105;46.158;14.604;2023-02-12T09:20:39;37.03;;;25.05;;
46288;SDS011;63105;46.158;14.604;2023-02-12T09:23:06;40.67;;;26.08;;
46288;SDS011;63105;46.158;14.604;2023-02-12T09:25:31;36.80;;;24.23;;
46288;SDS011;63105;46.158;14.604;2023-02-12T09:27:58;36.15;;;25.20;;
46288;SDS011;63105;46.158;14.604;2023-02-12T09:30:24;34.60;;;23.95;;
46288;SDS011;63105;46.158;14.604;2023-02-12T09:32:49;36.85;;;24.15;;
46288;SDS011;63105;46.158;14.604;2023-02-12T09:35:14;35.92;;;24.50;;
46288;SDS011;63105;46.158;14.604;2023-02-12T09:37:39;39.30;;;25.75;;
46288;SDS011;63105;46.158;14.604;2023-02-12T09:40:05;54.05;;;35.58;;
46288;SDS011;63105;46.158;14.604;2023-02-12T09:45:20;43.42;;;28.67;;
46288;SDS011;63105;46.158;14.604;2023-02-12T09:47:51;39.70;;;26.50;;
46288;SDS011;63105;46.158;14.604;2023-02-12T09:52:48;42.17;;;28.90;;
46288;SDS011;63105;46.158;14.604;2023-02-12T09:55:15;49.22;;;32.95;;
46288;SDS011;63105;46.158;14.604;2023-02-12T09:57:41;43.22;;;30.48;;
46288;SDS011;63105;46.158;14.604;2023-02-12T10:02:52;42.65;;;29.35;;
46288;SDS011;63105;46.158;14.604;2023-02-12T10:05:23;40.80;;;26.90;;
46288;SDS011;63105;46.158;14.604;2023-02-12T10:07:52;44.88;;;30.77;;
46288;SDS011;63105;46.158;14.604;2023-02-12T10:15:25;39.15;;;26.23;;
46288;SDS011;63105;46.158;14.604;2023-02-12T10:18:08;43.53;;;30.60;;
46288;SDS011;63105;46.158;14.604;2023-02-12T10:20:53;40.08;;;27.83;;
46288;SDS011;63105;46.158;14.604;2023-02-12T10:28:18;38.30;;;28.05;;
46288;SDS011;63105;46.158;14.604;2023-02-12T10:30:50;38.55;;;28.02;;
46288;SDS011;63105;46.158;14.604;2023-02-12T10:33:23;35.25;;;25.00;;
46288;SDS011;63105;46.158;14.604;2023-02-12T10:35:50;41.60;;;28.75;;
46288;SDS011;63105;46.158;14.604;2023-02-12T10:38:23;39.60;;;29.15;;
46288;SDS011;63105;46.158;14.604;2023-02-12T10:40:50;39.53;;;26.90;;
46288;SDS011;63105;46.158;14.604;2023-02-12T10:43:15;41.42;;;30.75;;
46288;SDS011;63105;46.158;14.604;2023-02-12T10:45:41;34.50;;;24.08;;
46288;SDS011;63105;46.158;14.604;2023-02-12T10:48:11;38.85;;;26.88;;
46288;SDS011;63105;46.158;14.604;2023-02-12T10:50:43;34.92;;;24.65;;
46288;SDS011;63105;46.158;14.604;2023-02-12T10:53:21;50.28;;;35.22;;
46288;SDS011;63105;46.158;14.604;2023-02-12T10:55:46;36.80;;;26.02;;
46288;SDS011;63105;46.158;14.604;2023-02-12T10:58:16;35.92;;;25.25;;
46288;SDS011;63105;46.158;14.604;2023-02-12T11:00:42;37.90;;;27.13;;
46288;SDS011;63105;46.158;14.604;2023-02-12T11:05:37;38.78;;;27.58;;
46288;SDS011;63105;46.158;14.604;2023-02-12T11:08:03;36.80;;;25.35;;
46288;SDS011;63105;46.158;14.604;2023-02-12T11:10:30;36.75;;;27.55;;
46288;SDS011;63105;46.158;14.604;2023-02-12T11:12:58;33.78;;;24.20;;
46288;SDS011;63105;46.158;14.604;2023-02-12T11:15:26;33.10;;;23.85;;
46288;SDS011;63105;46.158;14.604;2023-02-12T11:17:56;36.30;;;24.65;;
46288;SDS011;63105;46.158;14.604;2023-02-12T11:20:23;29.13;;;22.05;;
46288;SDS011;63105;46.158;14.604;2023-02-12T11:25:15;38.85;;;26.60;;
46288;SDS011;63105;46.158;14.604;2023-02-12T11:27:41;35.10;;;25.17;;
46288;SDS011;63105;46.158;14.604;2023-02-12T11:30:18;31.52;;;22.45;;
46288;SDS011;63105;46.158;14.604;2023-02-12T11:32:44;31.33;;;21.92;;
46288;SDS011;63105;46.158;14.604;2023-02-12T11:35:17;30.20;;;22.60;;
46288;SDS011;63105;46.158;14.604;2023-02-12T11:37:49;34.90;;;23.45;;
46288;SDS011;63105;46.158;14.604;2023-02-12T11:40:15;33.67;;;25.15;;
46288;SDS011;63105;46.158;14.604;2023-02-12T11:42:43;36.53;;;26.52;;
46288;SDS011;63105;46.158;14.604;2023-02-12T11:45:18;30.23;;;21.17;;
46288;SDS011;63105;46.158;14.604;2023-02-12T11:47:44;32.63;;;24.10;;
46288;SDS011;63105;46.158;14.604;2023-02-12T11:52:52;32.33;;;22.33;;
46288;SDS011;63105;46.158;14.604;2023-02-12T11:57:46;33.53;;;23.70;;
46288;SDS011;63105;46.158;14.604;2023-02-12T12:02:38;28.17;;;19.63;;
46288;SDS011;63105;46.158;14.604;2023-02-12T12:05:13;22.98;;;15.82;;
46288;SDS011;63105;46.158;14.604;2023-02-12T12:07:40;18.67;;;13.75;;
46288;SDS011;63105;46.158;14.604;2023-02-12T12:13:00;23.50;;;16.67;;
46288;SDS011;63105;46.158;14.604;2023-02-12T12:15:31;24.80;;;16.55;;
46288;SDS011;63105;46.158;14.604;2023-02-12T12:23:59;24.63;;;16.85;;
46288;SDS011;63105;46.158;14.604;2023-02-12T12:26:27;26.85;;;18.48;;
46288;SDS011;63105;46.158;14.604;2023-02-12T12:31:38;23.63;;;15.85;;
46288;SDS011;63105;46.158;14.604;2023-02-12T12:34:14;29.38;;;18.50;;
46288;SDS011;63105;46.158;14.604;2023-02-12T12:36:55;31.08;;;20.17;;
46288;SDS011;63105;46.158;14.604;2023-02-12T12:47:10;23.15;;;15.50;;
46288;SDS011;63105;46.158;14.604;2023-02-12T12:52:33;20.60;;;14.95;;
46288;SDS011;63105;46.158;14.604;2023-02-12T12:55:07;24.13;;;15.32;;
46288;SDS011;63105;46.158;14.604;2023-02-12T13:02:56;25.33;;;16.85;;
46288;SDS011;63105;46.158;14.604;2023-02-12T13:25:21;21.35;;;14.18;;
46288;SDS011;63105;46.158;14.604;2023-02-12T13:27:47;20.00;;;12.90;;
46288;SDS011;63105;46.158;14.604;2023-02-12T13:30:31;21.50;;;14.02;;
46288;SDS011;63105;46.158;14.604;2023-02-12T13:35:51;18.38;;;13.13;;
46288;SDS011;63105;46.158;14.604;2023-02-12T13:38:21;21.35;;;14.32;;
46288;SDS011;63105;46.158;14.604;2023-02-12T13:40:48;19.42;;;14.20;;
46288;SDS011;63105;46.158;14.604;2023-02-12T13:53:17;22.92;;;16.13;;
46288;SDS011;63105;46.158;14.604;2023-02-12T14:03:28;16.58;;;11.27;;
46288;SDS011;63105;46.158;14.604;2023-02-12T14:08:38;21.95;;;14.00;;
46288;SDS011;63105;46.158;14.604;2023-02-12T14:11:06;17.30;;;11.77;;
46288;SDS011;63105;46.158;14.604;2023-02-12T14:13:33;18.83;;;12.77;;
46288;SDS011;63105;46.158;14.604;2023-02-12T14:16:17;18.77;;;13.63;;
46288;SDS011;63105;46.158;14.604;2023-02-12T14:18:43;17.67;;;11.60;;
46288;SDS011;63105;46.158;14.604;2023-02-12T14:23:39;19.75;;;13.70;;
46288;SDS011;63105;46.158;14.604;2023-02-12T14:26:14;20.55;;;12.57;;
46288;SDS011;63105;46.158;14.604;2023-02-12T14:28:51;21.75;;;13.85;;
46288;SDS011;63105;46.158;14.604;2023-02-12T14:33:43;22.27;;;15.32;;
46288;SDS011;63105;46.158;14.604;2023-02-12T14:36:13;20.58;;;14.98;;
46288;SDS011;63105;46.158;14.604;2023-02-12T14:46:58;21.33;;;12.57;;
46288;SDS011;63105;46.158;14.604;2023-02-12T14:54:31;19.58;;;13.18;;
46288;SDS011;63105;46.158;14.604;2023-02-12T14:56:59;19.75;;;13.57;;
46288;SDS011;63105;46.158;14.604;2023-02-12T14:59:25;20.50;;;13.55;;
46288;SDS011;63105;46.158;14.604;2023-02-12T15:01:52;16.10;;;12.15;;
46288;SDS011;63105;46.158;14.604;2023-02-12T15:04:25;20.20;;;14.20;;
46288;SDS011;63105;46.158;14.604;2023-02-12T15:09:45;20.65;;;13.23;;
46288;SDS011;63105;46.158;14.604;2023-02-12T15:12:15;20.08;;;14.40;;
46288;SDS011;63105;46.158;14.604;2023-02-12T15:14:42;21.50;;;15.10;;
46288;SDS011;63105;46.158;14.604;2023-02-12T15:22:00;25.42;;;15.63;;
46288;SDS011;63105;46.158;14.604;2023-02-12T15:24:25;33.75;;;23.05;;
46288;SDS011;63105;46.158;14.604;2023-02-12T15:26:52;34.03;;;21.95;;
46288;SDS011;63105;46.158;14.604;2023-02-12T15:31:43;24.88;;;17.83;;
46288;SDS011;63105;46.158;14.604;2023-02-12T15:34:14;26.08;;;17.85;;
46288;SDS011;63105;46.158;14.604;2023-02-12T15:36:43;29.10;;;20.73;;
46288;SDS011;63105;46.158;14.604;2023-02-12T15:39:13;23.38;;;17.42;;
46288;SDS011;63105;46.158;14.604;2023-02-12T15:41:41;28.92;;;19.55;;
46288;SDS011;63105;46.158;14.604;2023-02-12T15:44:18;29.52;;;19.52;;
46288;SDS011;63105;46.158;14.604;2023-02-12T15:49:31;23.65;;;15.52;;
46288;SDS011;63105;46.158;14.604;2023-02-12T15:51:57;21.77;;;14.48;;
46288;SDS011;63105;46.158;14.604;2023-02-12T15:54:23;22.42;;;15.93;;
46288;SDS011;63105;46.158;14.604;2023-02-12T15:56:49;27.48;;;17.50;;
46288;SDS011;63105;46.158;14.604;2023-02-12T15:59:18;27.30;;;19.50;;
46288;SDS011;63105;46.158;14.604;2023-02-12T16:01:51;28.80;;;20.73;;
46288;SDS011;63105;46.158;14.604;2023-02-12T16:04:16;27.63;;;18.85;;
46288;SDS011;63105;46.158;14.604;2023-02-12T16:06:41;26.17;;;18.10;;
46288;SDS011;63105;46.158;14.604;2023-02-12T16:09:07;26.83;;;19.73;;
46288;SDS011;63105;46.158;14.604;2023-02-12T16:11:33;23.65;;;17.38;;
46288;SDS011;63105;46.158;14.604;2023-02-12T16:14:00;25.33;;;16.85;;
46288;SDS011;63105;46.158;14.604;2023-02-12T16:16:34;22.85;;;15.50;;
46288;SDS011;63105;46.158;14.604;2023-02-12T16:21:28;32.03;;;20.52;;
46288;SDS011;63105;46.158;14.604;2023-02-12T16:23:53;32.30;;;22.35;;
46288;SDS011;63105;46.158;14.604;2023-02-12T16:26:22;32.03;;;22.05;;
46288;SDS011;63105;46.158;14.604;2023-02-12T16:28:49;25.67;;;17.50;;
46288;SDS011;63105;46.158;14.604;2023-02-12T16:31:15;24.45;;;15.77;;
46288;SDS011;63105;46.158;14.604;2023-02-12T16:33:42;23.45;;;15.77;;
46288;SDS011;63105;46.158;14.604;2023-02-12T16:38:44;26.17;;;17.33;;
46288;SDS011;63105;46.158;14.604;2023-02-12T16:41:20;38.33;;;25.35;;
46288;SDS011;63105;46.158;14.604;2023-02-12T16:43:50;53.15;;;32.80;;
46288;SDS011;63105;46.158;14.604;2023-02-12T16:46:18;31.88;;;19.90;;
46288;SDS011;63105;46.158;14.604;2023-02-12T16:48:45;37.88;;;23.42;;
46288;SDS011;63105;46.158;14.604;2023-02-12T16:51:28;74.35;;;37.63;;
46288;SDS011;63105;46.158;14.604;2023-02-12T16:53:55;45.75;;;25.50;;
46288;SDS011;63105;46.158;14.604;2023-02-12T16:56:22;28.23;;;18.75;;
46288;SDS011;63105;46.158;14.604;2023-02-12T16:58:51;27.77;;;18.35;;
46288;SDS011;63105;46.158;14.604;2023-02-12T17:01:26;28.63;;;18.45;;